sensor_id;sensor_type;location;lat;lon;timestamp;temperature;humidity
23475;DHT22;11910;52.086;21.066;2023-08-30T00:00:13;20.30;99.90
23475;DHT22;11910;52.086;21.066;2023-08-30T00:02:39;20.30;99.90
23475;DHT22;11910;52.086;21.066;2023-08-30T00:05:04;20.20;99.90
23475;DHT22;11910;52.086;21.066;2023-08-30T00:07:30;20.20;99.90
23475;DHT22;11910;52.086;21.066;2023-08-30T00:09:58;20.20;99.90
23475;DHT22;11910;52.086;21.066;2023-08-30T00:12:24;20.20;99.90
23475;DHT22;11910;52.086;21.066;2023-08-30T00:14:50;20.20;99.90
23475;DHT22;11910;52.086;21.066;2023-08-30T00:17:16;20.20;99.90
23475;DHT22;11910;52.086;21.066;2023-08-30T00:19:42;20.20;99.90
23475;DHT22;11910;52.086;21.066;2023-08-30T00:22:08;20.20;99.90
23475;DHT22;11910;52.086;21.066;2023-08-30T00:24:34;20.20;99.90
23475;DHT22;11910;52.086;21.066;2023-08-30T00:27:06;20.20;99.90
23475;DHT22;11910;52.086;21.066;2023-08-30T00:29:32;20.20;99.90
23475;DHT22;11910;52.086;21.066;2023-08-30T00:31:58;20.20;99.90
23475;DHT22;11910;52.086;21.066;2023-08-30T00:34:23;20.20;99.90
23475;DHT22;11910;52.086;21.066;2023-08-30T00:36:49;20.20;99.90
23475;DHT22;11910;52.086;21.066;2023-08-30T00:39:17;20.20;99.90
23475;DHT22;11910;52.086;21.066;2023-08-30T00:41:43;20.20;99.90
23475;DHT22;11910;52.086;21.066;2023-08-30T00:44:10;20.10;99.90
23475;DHT22;11910;52.086;21.066;2023-08-30T00:46:36;20.10;99.90
23475;DHT22;11910;52.086;21.066;2023-08-30T00:49:06;20.10;99.90
23475;DHT22;11910;52.086;21.066;2023-08-30T00:51:33;20.00;99.90
23475;DHT22;11910;52.086;21.066;2023-08-30T00:53:59;20.00;99.90
23475;DHT22;11910;52.086;21.066;2023-08-30T00:56:27;20.00;99.90
23475;DHT22;11910;52.086;21.066;2023-08-30T00:58:53;20.00;99.90
23475;DHT22;11910;52.086;21.066;2023-08-30T01:01:19;20.00;99.90
23475;DHT22;11910;52.086;21.066;2023-08-30T01:03:45;20.00;99.90
23475;DHT22;11910;52.086;21.066;2023-08-30T01:06:11;20.00;99.90
23475;DHT22;11910;52.086;21.066;2023-08-30T01:08:37;20.00;99.90
23475;DHT22;11910;52.086;21.066;2023-08-30T01:14:12;19.90;99.90
23475;DHT22;11910;52.086;21.066;2023-08-30T01:16:39;20.00;99.90
23475;DHT22;11910;52.086;21.066;2023-08-30T01:19:25;20.00;99.90
23475;DHT22;11910;52.086;21.066;2023-08-30T01:22:15;20.00;99.90
23475;DHT22;11910;52.086;21.066;2023-08-30T01:27:34;20.00;99.90
23475;DHT22;11910;52.086;21.066;2023-08-30T01:30:02;20.00;99.90
23475;DHT22;11910;52.086;21.066;2023-08-30T01:32:29;20.00;99.90
23475;DHT22;11910;52.086;21.066;2023-08-30T01:34:55;20.00;99.90
23475;DHT22;11910;52.086;21.066;2023-08-30T01:37:22;20.00;99.90
23475;DHT22;11910;52.086;21.066;2023-08-30T01:39:50;19.90;99.90
23475;DHT22;11910;52.086;21.066;2023-08-30T01:42:17;19.90;99.90
23475;DHT22;11910;52.086;21.066;2023-08-30T01:44:48;19.90;99.90
23475;DHT22;11910;52.086;21.066;2023-08-30T01:47:15;20.00;99.90
23475;DHT22;11910;52.086;21.066;2023-08-30T01:49:42;20.00;99.90
23475;DHT22;11910;52.086;21.066;2023-08-30T01:52:09;20.00;99.90
23475;DHT22;11910;52.086;21.066;2023-08-30T01:54:36;19.90;99.90
23475;DHT22;11910;52.086;21.066;2023-08-30T01:57:03;19.90;99.90
23475;DHT22;11910;52.086;21.066;2023-08-30T01:59:29;19.90;99.90
23475;DHT22;11910;52.086;21.066;2023-08-30T02:01:55;19.90;99.90
23475;DHT22;11910;52.086;21.066;2023-08-30T02:04:22;19.90;99.90
23475;DHT22;11910;52.086;21.066;2023-08-30T02:06:59;19.90;99.90
23475;DHT22;11910;52.086;21.066;2023-08-30T02:09:50;19.90;99.90
23475;DHT22;11910;52.086;21.066;2023-08-30T02:12:20;19.80;99.90
23475;DHT22;11910;52.086;21.066;2023-08-30T02:14:49;19.80;99.90
23475;DHT22;11910;52.086;21.066;2023-08-30T02:17:15;19.80;99.90
23475;DHT22;11910;52.086;21.066;2023-08-30T02:19:43;19.80;99.90
23475;DHT22;11910;52.086;21.066;2023-08-30T02:22:09;19.80;99.90
23475;DHT22;11910;52.086;21.066;2023-08-30T02:24:35;19.80;99.90
23475;DHT22;11910;52.086;21.066;2023-08-30T02:27:00;19.70;99.90
23475;DHT22;11910;52.086;21.066;2023-08-30T02:29:26;19.70;99.90
23475;DHT22;11910;52.086;21.066;2023-08-30T02:31:52;19.70;99.90
23475;DHT22;11910;52.086;21.066;2023-08-30T02:34:17;19.70;99.90
23475;DHT22;11910;52.086;21.066;2023-08-30T02:36:43;19.60;99.90
23475;DHT22;11910;52.086;21.066;2023-08-30T02:39:09;19.60;99.90
23475;DHT22;11910;52.086;21.066;2023-08-30T02:41:34;19.50;99.90
23475;DHT22;11910;52.086;21.066;2023-08-30T02:44:00;19.60;99.90
23475;DHT22;11910;52.086;21.066;2023-08-30T02:46:26;19.60;99.90
23475;DHT22;11910;52.086;21.066;2023-08-30T02:48:51;19.50;99.90
23475;DHT22;11910;52.086;21.066;2023-08-30T02:51:17;19.50;99.90
23475;DHT22;11910;52.086;21.066;2023-08-30T02:53:43;19.50;99.90
23475;DHT22;11910;52.086;21.066;2023-08-30T02:56:11;19.50;99.90
23475;DHT22;11910;52.086;21.066;2023-08-30T02:58:36;19.50;99.90
23475;DHT22;11910;52.086;21.066;2023-08-30T03:01:02;19.40;99.90
23475;DHT22;11910;52.086;21.066;2023-08-30T03:03:28;19.30;99.90
23475;DHT22;11910;52.086;21.066;2023-08-30T03:05:54;19.30;99.90
23475;DHT22;11910;52.086;21.066;2023-08-30T03:08:19;19.40;99.90
23475;DHT22;11910;52.086;21.066;2023-08-30T03:10:45;19.30;99.90
23475;DHT22;11910;52.086;21.066;2023-08-30T03:13:11;19.40;99.90
23475;DHT22;11910;52.086;21.066;2023-08-30T03:15:36;19.30;99.90
23475;DHT22;11910;52.086;21.066;2023-08-30T03:18:02;19.20;99.90
23475;DHT22;11910;52.086;21.066;2023-08-30T03:20:28;19.20;99.90
23475;DHT22;11910;52.086;21.066;2023-08-30T03:22:56;19.20;99.90
23475;DHT22;11910;52.086;21.066;2023-08-30T03:25:23;19.10;99.90
23475;DHT22;11910;52.086;21.066;2023-08-30T03:27:49;19.10;99.90
23475;DHT22;11910;52.086;21.066;2023-08-30T03:30:15;19.10;99.90
23475;DHT22;11910;52.086;21.066;2023-08-30T03:32:40;19.10;99.90
23475;DHT22;11910;52.086;21.066;2023-08-30T03:35:06;19.20;99.90
23475;DHT22;11910;52.086;21.066;2023-08-30T03:37:32;19.10;99.90
23475;DHT22;11910;52.086;21.066;2023-08-30T03:39:58;19.10;99.90
23475;DHT22;11910;52.086;21.066;2023-08-30T03:42:23;19.10;99.90
23475;DHT22;11910;52.086;21.066;2023-08-30T03:44:49;19.10;99.90
23475;DHT22;11910;52.086;21.066;2023-08-30T03:47:15;19.00;99.90
23475;DHT22;11910;52.086;21.066;2023-08-30T03:49:40;18.90;99.90
23475;DHT22;11910;52.086;21.066;2023-08-30T03:52:06;18.90;99.90
23475;DHT22;11910;52.086;21.066;2023-08-30T03:54:32;18.90;99.90
23475;DHT22;11910;52.086;21.066;2023-08-30T03:56:57;18.80;99.90
23475;DHT22;11910;52.086;21.066;2023-08-30T03:59:23;18.90;99.90
23475;DHT22;11910;52.086;21.066;2023-08-30T04:01:50;18.90;99.90
23475;DHT22;11910;52.086;21.066;2023-08-30T04:04:16;19.00;99.90
23475;DHT22;11910;52.086;21.066;2023-08-30T04:06:42;18.90;99.90
23475;DHT22;11910;52.086;21.066;2023-08-30T04:09:08;18.90;99.90
23475;DHT22;11910;52.086;21.066;2023-08-30T04:11:33;18.80;99.90
23475;DHT22;11910;52.086;21.066;2023-08-30T04:13:59;18.80;99.90
23475;DHT22;11910;52.086;21.066;2023-08-30T04:16:25;18.90;99.90
23475;DHT22;11910;52.086;21.066;2023-08-30T04:18:50;18.90;99.90
23475;DHT22;11910;52.086;21.066;2023-08-30T04:21:53;18.90;99.90
23475;DHT22;11910;52.086;21.066;2023-08-30T04:25:05;18.90;99.90
23475;DHT22;11910;52.086;21.066;2023-08-30T04:28:10;18.90;99.90
23475;DHT22;11910;52.086;21.066;2023-08-30T04:37:48;19.20;99.90
23475;DHT22;11910;52.086;21.066;2023-08-30T04:40:14;19.20;99.90
23475;DHT22;11910;52.086;21.066;2023-08-30T04:42:40;19.20;99.90
23475;DHT22;11910;52.086;21.066;2023-08-30T04:45:06;19.20;99.90
23475;DHT22;11910;52.086;21.066;2023-08-30T04:47:33;19.30;99.90
23475;DHT22;11910;52.086;21.066;2023-08-30T04:49:59;19.30;99.90
23475;DHT22;11910;52.086;21.066;2023-08-30T04:52:25;19.30;99.90
23475;DHT22;11910;52.086;21.066;2023-08-30T04:54:50;19.30;99.90
23475;DHT22;11910;52.086;21.066;2023-08-30T04:57:16;19.30;99.90
23475;DHT22;11910;52.086;21.066;2023-08-30T04:59:43;19.30;99.90
23475;DHT22;11910;52.086;21.066;2023-08-30T05:02:09;19.30;99.90
23475;DHT22;11910;52.086;21.066;2023-08-30T05:04:35;19.30;99.90
23475;DHT22;11910;52.086;21.066;2023-08-30T05:07:01;19.40;99.90
23475;DHT22;11910;52.086;21.066;2023-08-30T05:09:29;19.30;99.90
23475;DHT22;11910;52.086;21.066;2023-08-30T05:11:55;19.40;99.90
23475;DHT22;11910;52.086;21.066;2023-08-30T05:14:21;19.40;99.90
23475;DHT22;11910;52.086;21.066;2023-08-30T05:16:49;19.40;99.90
23475;DHT22;11910;52.086;21.066;2023-08-30T05:19:14;19.30;99.90
23475;DHT22;11910;52.086;21.066;2023-08-30T05:21:42;19.40;99.90
23475;DHT22;11910;52.086;21.066;2023-08-30T05:24:08;19.50;99.90
23475;DHT22;11910;52.086;21.066;2023-08-30T05:26:34;19.60;99.90
23475;DHT22;11910;52.086;21.066;2023-08-30T05:28:59;19.60;99.90
23475;DHT22;11910;52.086;21.066;2023-08-30T05:31:25;19.60;99.90
23475;DHT22;11910;52.086;21.066;2023-08-30T05:33:50;19.70;99.90
23475;DHT22;11910;52.086;21.066;2023-08-30T05:36:22;19.70;99.90
23475;DHT22;11910;52.086;21.066;2023-08-30T05:38:48;19.70;99.90
23475;DHT22;11910;52.086;21.066;2023-08-30T05:41:14;19.70;99.90
23475;DHT22;11910;52.086;21.066;2023-08-30T05:43:39;19.80;99.90
23475;DHT22;11910;52.086;21.066;2023-08-30T05:46:05;19.80;99.90
23475;DHT22;11910;52.086;21.066;2023-08-30T05:48:33;19.80;99.90
23475;DHT22;11910;52.086;21.066;2023-08-30T05:51:01;19.70;99.90
23475;DHT22;11910;52.086;21.066;2023-08-30T05:53:28;19.80;99.90
23475;DHT22;11910;52.086;21.066;2023-08-30T05:55:53;19.70;99.90
23475;DHT22;11910;52.086;21.066;2023-08-30T05:58:19;19.80;99.90
23475;DHT22;11910;52.086;21.066;2023-08-30T06:00:49;19.80;99.90
23475;DHT22;11910;52.086;21.066;2023-08-30T06:03:14;19.70;99.90
23475;DHT22;11910;52.086;21.066;2023-08-30T06:05:40;19.70;99.90
23475;DHT22;11910;52.086;21.066;2023-08-30T06:08:06;19.80;99.90
23475;DHT22;11910;52.086;21.066;2023-08-30T06:10:33;19.70;99.90
23475;DHT22;11910;52.086;21.066;2023-08-30T06:12:59;19.80;99.90
23475;DHT22;11910;52.086;21.066;2023-08-30T06:15:24;19.80;99.90
23475;DHT22;11910;52.086;21.066;2023-08-30T06:17:51;19.80;99.90
23475;DHT22;11910;52.086;21.066;2023-08-30T06:20:19;19.80;99.90
23475;DHT22;11910;52.086;21.066;2023-08-30T06:22:45;19.70;99.90
23475;DHT22;11910;52.086;21.066;2023-08-30T06:25:11;19.70;99.90
23475;DHT22;11910;52.086;21.066;2023-08-30T06:27:43;19.70;99.90
23475;DHT22;11910;52.086;21.066;2023-08-30T06:30:10;19.60;99.90
23475;DHT22;11910;52.086;21.066;2023-08-30T06:32:36;19.70;99.90
23475;DHT22;11910;52.086;21.066;2023-08-30T06:35:01;19.70;99.90
23475;DHT22;11910;52.086;21.066;2023-08-30T06:37:28;19.70;99.90
23475;DHT22;11910;52.086;21.066;2023-08-30T06:39:53;19.70;99.90
23475;DHT22;11910;52.086;21.066;2023-08-30T06:42:31;19.70;99.90
23475;DHT22;11910;52.086;21.066;2023-08-30T06:44:56;19.70;99.90
23475;DHT22;11910;52.086;21.066;2023-08-30T06:47:22;19.70;99.90
23475;DHT22;11910;52.086;21.066;2023-08-30T06:49:50;19.70;99.90
23475;DHT22;11910;52.086;21.066;2023-08-30T06:52:16;19.70;99.90
23475;DHT22;11910;52.086;21.066;2023-08-30T06:54:41;19.70;99.90
23475;DHT22;11910;52.086;21.066;2023-08-30T06:57:07;19.70;99.90
23475;DHT22;11910;52.086;21.066;2023-08-30T06:59:34;19.70;99.90
23475;DHT22;11910;52.086;21.066;2023-08-30T07:02:02;19.60;99.90
23475;DHT22;11910;52.086;21.066;2023-08-30T07:04:28;19.70;99.90
23475;DHT22;11910;52.086;21.066;2023-08-30T07:06:54;19.70;99.90
23475;DHT22;11910;52.086;21.066;2023-08-30T07:09:35;19.70;99.90
23475;DHT22;11910;52.086;21.066;2023-08-30T07:12:01;19.70;99.90
23475;DHT22;11910;52.086;21.066;2023-08-30T07:14:26;19.70;99.90
23475;DHT22;11910;52.086;21.066;2023-08-30T07:16:52;19.70;99.90
23475;DHT22;11910;52.086;21.066;2023-08-30T07:19:24;19.70;99.90
23475;DHT22;11910;52.086;21.066;2023-08-30T07:22:23;19.70;99.90
23475;DHT22;11910;52.086;21.066;2023-08-30T07:25:01;19.70;99.90
23475;DHT22;11910;52.086;21.066;2023-08-30T07:31:05;19.70;99.90
23475;DHT22;11910;52.086;21.066;2023-08-30T07:33:45;19.70;99.90
23475;DHT22;11910;52.086;21.066;2023-08-30T07:36:13;19.70;99.90
23475;DHT22;11910;52.086;21.066;2023-08-30T07:38:54;19.70;99.90
23475;DHT22;11910;52.086;21.066;2023-08-30T07:41:40;19.70;99.90
23475;DHT22;11910;52.086;21.066;2023-08-30T07:44:32;19.70;99.90
23475;DHT22;11910;52.086;21.066;2023-08-30T07:47:32;19.70;99.90
23475;DHT22;11910;52.086;21.066;2023-08-30T07:50:00;19.60;99.90
23475;DHT22;11910;52.086;21.066;2023-08-30T07:55:17;19.60;99.90
23475;DHT22;11910;52.086;21.066;2023-08-30T07:57:52;19.60;99.90
23475;DHT22;11910;52.086;21.066;2023-08-30T08:00:31;19.60;99.90
23475;DHT22;11910;52.086;21.066;2023-08-30T08:09:51;19.40;99.90
23475;DHT22;11910;52.086;21.066;2023-08-30T08:13:18;19.40;99.90
23475;DHT22;11910;52.086;21.066;2023-08-30T08:15:55;19.30;99.90
23475;DHT22;11910;52.086;21.066;2023-08-30T08:18:30;19.30;99.90
23475;DHT22;11910;52.086;21.066;2023-08-30T08:20:58;19.30;99.90
23475;DHT22;11910;52.086;21.066;2023-08-30T08:23:24;19.30;99.90
23475;DHT22;11910;52.086;21.066;2023-08-30T08:25:49;19.30;99.90
23475;DHT22;11910;52.086;21.066;2023-08-30T08:28:21;19.30;99.90
23475;DHT22;11910;52.086;21.066;2023-08-30T08:30:47;19.30;99.90
23475;DHT22;11910;52.086;21.066;2023-08-30T08:33:19;19.30;99.90
23475;DHT22;11910;52.086;21.066;2023-08-30T08:35:45;19.40;99.90
23475;DHT22;11910;52.086;21.066;2023-08-30T08:38:11;19.30;99.90
23475;DHT22;11910;52.086;21.066;2023-08-30T08:40:37;19.30;99.90
23475;DHT22;11910;52.086;21.066;2023-08-30T08:43:05;19.30;99.90
23475;DHT22;11910;52.086;21.066;2023-08-30T08:45:35;19.30;99.90
23475;DHT22;11910;52.086;21.066;2023-08-30T08:48:04;19.30;99.90
23475;DHT22;11910;52.086;21.066;2023-08-30T08:50:33;19.20;99.90
23475;DHT22;11910;52.086;21.066;2023-08-30T08:53:01;19.30;99.90
23475;DHT22;11910;52.086;21.066;2023-08-30T08:55:31;19.20;99.90
23475;DHT22;11910;52.086;21.066;2023-08-30T08:57:58;19.30;99.90
23475;DHT22;11910;52.086;21.066;2023-08-30T09:00:24;19.30;99.90
23475;DHT22;11910;52.086;21.066;2023-08-30T09:02:51;19.30;99.90
23475;DHT22;11910;52.086;21.066;2023-08-30T09:05:19;19.40;99.90
23475;DHT22;11910;52.086;21.066;2023-08-30T09:07:45;19.30;99.90
23475;DHT22;11910;52.086;21.066;2023-08-30T09:10:11;19.40;99.90
23475;DHT22;11910;52.086;21.066;2023-08-30T09:12:36;19.30;99.90
23475;DHT22;11910;52.086;21.066;2023-08-30T09:15:02;19.30;99.90
23475;DHT22;11910;52.086;21.066;2023-08-30T09:17:37;19.30;99.90
23475;DHT22;11910;52.086;21.066;2023-08-30T09:20:11;19.30;99.90
23475;DHT22;11910;52.086;21.066;2023-08-30T09:22:40;19.30;99.90
23475;DHT22;11910;52.086;21.066;2023-08-30T09:25:11;19.20;99.90
23475;DHT22;11910;52.086;21.066;2023-08-30T09:27:47;19.30;99.90
23475;DHT22;11910;52.086;21.066;2023-08-30T09:30:13;19.20;99.90
23475;DHT22;11910;52.086;21.066;2023-08-30T09:32:40;19.20;99.90
23475;DHT22;11910;52.086;21.066;2023-08-30T09:35:07;19.20;99.90
23475;DHT22;11910;52.086;21.066;2023-08-30T09:37:39;19.20;99.90
23475;DHT22;11910;52.086;21.066;2023-08-30T09:40:05;19.20;99.90
23475;DHT22;11910;52.086;21.066;2023-08-30T09:42:31;19.10;99.90
23475;DHT22;11910;52.086;21.066;2023-08-30T09:44:57;19.10;99.90
23475;DHT22;11910;52.086;21.066;2023-08-30T09:47:24;19.10;99.90
23475;DHT22;11910;52.086;21.066;2023-08-30T09:49:51;19.10;99.90
23475;DHT22;11910;52.086;21.066;2023-08-30T09:52:23;19.10;99.90
23475;DHT22;11910;52.086;21.066;2023-08-30T09:54:49;19.10;99.90
23475;DHT22;11910;52.086;21.066;2023-08-30T09:57:15;19.10;99.90
23475;DHT22;11910;52.086;21.066;2023-08-30T09:59:42;19.10;99.90
23475;DHT22;11910;52.086;21.066;2023-08-30T10:02:09;19.10;99.90
23475;DHT22;11910;52.086;21.066;2023-08-30T10:04:37;19.20;99.90
23475;DHT22;11910;52.086;21.066;2023-08-30T10:07:04;19.10;99.90
23475;DHT22;11910;52.086;21.066;2023-08-30T10:09:38;19.10;99.90
23475;DHT22;11910;52.086;21.066;2023-08-30T10:12:05;19.10;99.90
23475;DHT22;11910;52.086;21.066;2023-08-30T10:14:31;19.10;99.90
23475;DHT22;11910;52.086;21.066;2023-08-30T10:17:02;19.20;99.90
23475;DHT22;11910;52.086;21.066;2023-08-30T10:19:32;19.20;99.90
23475;DHT22;11910;52.086;21.066;2023-08-30T10:22:05;19.30;99.90
23475;DHT22;11910;52.086;21.066;2023-08-30T10:24:44;19.30;99.90
23475;DHT22;11910;52.086;21.066;2023-08-30T10:27:12;19.30;99.90
23475;DHT22;11910;52.086;21.066;2023-08-30T10:29:40;19.30;99.90
23475;DHT22;11910;52.086;21.066;2023-08-30T10:32:25;19.40;99.90
23475;DHT22;11910;52.086;21.066;2023-08-30T10:34:55;19.40;99.90
23475;DHT22;11910;52.086;21.066;2023-08-30T10:37:27;19.50;99.90
23475;DHT22;11910;52.086;21.066;2023-08-30T10:40:07;19.50;99.90
23475;DHT22;11910;52.086;21.066;2023-08-30T10:42:33;19.50;99.90
23475;DHT22;11910;52.086;21.066;2023-08-30T10:45:05;19.50;99.90
23475;DHT22;11910;52.086;21.066;2023-08-30T10:47:35;19.50;99.90
23475;DHT22;11910;52.086;21.066;2023-08-30T10:50:30;19.50;99.90
23475;DHT22;11910;52.086;21.066;2023-08-30T10:52:56;19.50;99.90
23475;DHT22;11910;52.086;21.066;2023-08-30T10:55:23;19.50;99.90
23475;DHT22;11910;52.086;21.066;2023-08-30T10:58:00;19.40;99.90
23475;DHT22;11910;52.086;21.066;2023-08-30T11:00:30;19.40;99.90
23475;DHT22;11910;52.086;21.066;2023-08-30T11:02:59;19.40;99.90
23475;DHT22;11910;52.086;21.066;2023-08-30T11:05:26;19.40;99.90
23475;DHT22;11910;52.086;21.066;2023-08-30T11:07:53;19.40;99.90
23475;DHT22;11910;52.086;21.066;2023-08-30T11:10:20;19.40;99.90
23475;DHT22;11910;52.086;21.066;2023-08-30T11:12:47;19.40;99.90
23475;DHT22;11910;52.086;21.066;2023-08-30T11:15:25;19.40;99.90
23475;DHT22;11910;52.086;21.066;2023-08-30T11:17:51;19.40;99.90
23475;DHT22;11910;52.086;21.066;2023-08-30T11:20:17;19.40;99.90
23475;DHT22;11910;52.086;21.066;2023-08-30T11:22:46;19.40;99.90
23475;DHT22;11910;52.086;21.066;2023-08-30T11:25:14;19.40;99.90
23475;DHT22;11910;52.086;21.066;2023-08-30T11:27:41;19.30;99.90
23475;DHT22;11910;52.086;21.066;2023-08-30T11:30:08;19.30;99.90
23475;DHT22;11910;52.086;21.066;2023-08-30T11:32:41;19.40;99.90
23475;DHT22;11910;52.086;21.066;2023-08-30T11:35:09;19.40;99.90
23475;DHT22;11910;52.086;21.066;2023-08-30T11:37:35;19.40;99.90
23475;DHT22;11910;52.086;21.066;2023-08-30T11:40:04;19.40;99.90
23475;DHT22;11910;52.086;21.066;2023-08-30T11:42:38;19.40;99.90
23475;DHT22;11910;52.086;21.066;2023-08-30T11:45:08;19.40;99.90
23475;DHT22;11910;52.086;21.066;2023-08-30T11:47:34;19.40;99.90
23475;DHT22;11910;52.086;21.066;2023-08-30T11:50:08;19.40;99.90
23475;DHT22;11910;52.086;21.066;2023-08-30T11:53:18;19.30;99.90
23475;DHT22;11910;52.086;21.066;2023-08-30T11:58:35;19.30;99.90
23475;DHT22;11910;52.086;21.066;2023-08-30T12:01:06;19.30;99.90
23475;DHT22;11910;52.086;21.066;2023-08-30T12:03:32;19.30;99.90
23475;DHT22;11910;52.086;21.066;2023-08-30T13:06:30;19.10;99.90
23475;DHT22;11910;52.086;21.066;2023-08-30T13:08:56;19.60;99.90
23475;DHT22;11910;52.086;21.066;2023-08-30T13:11:22;19.60;99.90
23475;DHT22;11910;52.086;21.066;2023-08-30T13:13:48;19.60;99.90
23475;DHT22;11910;52.086;21.066;2023-08-30T13:16:13;19.60;99.90
23475;DHT22;11910;52.086;21.066;2023-08-30T13:21:05;19.80;99.90
23475;DHT22;11910;52.086;21.066;2023-08-30T13:23:30;19.80;99.90
23475;DHT22;11910;52.086;21.066;2023-08-30T13:25:56;19.70;99.90
23475;DHT22;11910;52.086;21.066;2023-08-30T13:28:21;19.70;99.90
23475;DHT22;11910;52.086;21.066;2023-08-30T13:30:47;19.70;99.90
23475;DHT22;11910;52.086;21.066;2023-08-30T13:33:14;19.70;99.90
23475;DHT22;11910;52.086;21.066;2023-08-30T13:35:40;19.70;99.90
23475;DHT22;11910;52.086;21.066;2023-08-30T13:38:05;19.70;99.90
23475;DHT22;11910;52.086;21.066;2023-08-30T13:40:31;19.80;99.90
23475;DHT22;11910;52.086;21.066;2023-08-30T13:42:56;19.80;99.90
23475;DHT22;11910;52.086;21.066;2023-08-30T13:45:22;19.80;99.90
23475;DHT22;11910;52.086;21.066;2023-08-30T13:47:48;19.80;99.90
23475;DHT22;11910;52.086;21.066;2023-08-30T13:50:17;19.90;99.90
23475;DHT22;11910;52.086;21.066;2023-08-30T13:52:42;19.90;99.90
23475;DHT22;11910;52.086;21.066;2023-08-30T13:55:08;20.10;99.90
23475;DHT22;11910;52.086;21.066;2023-08-30T13:57:34;20.10;99.90
23475;DHT22;11910;52.086;21.066;2023-08-30T13:59:59;20.20;99.90
23475;DHT22;11910;52.086;21.066;2023-08-30T14:02:28;20.20;99.90
23475;DHT22;11910;52.086;21.066;2023-08-30T14:04:54;20.10;99.90
23475;DHT22;11910;52.086;21.066;2023-08-30T14:07:19;20.10;99.90
23475;DHT22;11910;52.086;21.066;2023-08-30T14:09:45;20.10;99.90
23475;DHT22;11910;52.086;21.066;2023-08-30T14:12:10;20.10;99.90
23475;DHT22;11910;52.086;21.066;2023-08-30T14:14:36;20.20;99.90
23475;DHT22;11910;52.086;21.066;2023-08-30T14:17:02;20.20;99.90
23475;DHT22;11910;52.086;21.066;2023-08-30T14:19:27;20.20;99.90
23475;DHT22;11910;52.086;21.066;2023-08-30T14:21:53;20.20;99.90
23475;DHT22;11910;52.086;21.066;2023-08-30T14:24:21;20.10;99.90
23475;DHT22;11910;52.086;21.066;2023-08-30T14:26:46;20.10;99.90
23475;DHT22;11910;52.086;21.066;2023-08-30T14:29:12;20.10;99.90
23475;DHT22;11910;52.086;21.066;2023-08-30T14:31:37;20.10;99.90
23475;DHT22;11910;52.086;21.066;2023-08-30T14:34:03;20.00;99.90
23475;DHT22;11910;52.086;21.066;2023-08-30T14:36:29;20.10;99.90
23475;DHT22;11910;52.086;21.066;2023-08-30T14:38:54;20.00;99.90
23475;DHT22;11910;52.086;21.066;2023-08-30T14:41:20;20.00;99.90
23475;DHT22;11910;52.086;21.066;2023-08-30T14:43:46;20.00;99.90
23475;DHT22;11910;52.086;21.066;2023-08-30T14:46:11;20.00;99.90
23475;DHT22;11910;52.086;21.066;2023-08-30T14:48:37;20.00;99.90
23475;DHT22;11910;52.086;21.066;2023-08-30T14:51:05;20.00;99.90
23475;DHT22;11910;52.086;21.066;2023-08-30T14:53:31;20.00;99.90
23475;DHT22;11910;52.086;21.066;2023-08-30T14:55:56;20.00;99.90
23475;DHT22;11910;52.086;21.066;2023-08-30T14:58:22;20.00;99.90
23475;DHT22;11910;52.086;21.066;2023-08-30T15:00:48;20.00;99.90
23475;DHT22;11910;52.086;21.066;2023-08-30T15:03:14;20.10;99.90
23475;DHT22;11910;52.086;21.066;2023-08-30T15:05:40;20.00;99.90
23475;DHT22;11910;52.086;21.066;2023-08-30T15:08:06;20.00;99.90
23475;DHT22;11910;52.086;21.066;2023-08-30T15:10:32;20.00;99.90
23475;DHT22;11910;52.086;21.066;2023-08-30T15:12:57;20.00;99.90
23475;DHT22;11910;52.086;21.066;2023-08-30T15:15:23;20.00;99.90
23475;DHT22;11910;52.086;21.066;2023-08-30T15:17:49;20.00;99.90
23475;DHT22;11910;52.086;21.066;2023-08-30T15:20:14;20.00;99.90
23475;DHT22;11910;52.086;21.066;2023-08-30T15:22:40;20.00;99.90
23475;DHT22;11910;52.086;21.066;2023-08-30T15:25:06;20.00;99.90
23475;DHT22;11910;52.086;21.066;2023-08-30T15:27:33;20.00;99.90
23475;DHT22;11910;52.086;21.066;2023-08-30T15:29:59;19.90;99.90
23475;DHT22;11910;52.086;21.066;2023-08-30T15:32:25;19.90;99.90
23475;DHT22;11910;52.086;21.066;2023-08-30T15:34:50;19.90;99.90
23475;DHT22;11910;52.086;21.066;2023-08-30T15:37:17;19.90;99.90
23475;DHT22;11910;52.086;21.066;2023-08-30T15:39:42;19.80;99.90
23475;DHT22;11910;52.086;21.066;2023-08-30T15:42:08;19.90;99.90
23475;DHT22;11910;52.086;21.066;2023-08-30T15:44:34;19.90;99.90
23475;DHT22;11910;52.086;21.066;2023-08-30T15:46:59;19.90;99.90
23475;DHT22;11910;52.086;21.066;2023-08-30T15:49:25;19.90;99.90
23475;DHT22;11910;52.086;21.066;2023-08-30T15:51:51;19.90;99.90
23475;DHT22;11910;52.086;21.066;2023-08-30T15:54:16;19.90;99.90
23475;DHT22;11910;52.086;21.066;2023-08-30T15:56:42;19.90;99.90
23475;DHT22;11910;52.086;21.066;2023-08-30T15:59:09;19.90;99.90
23475;DHT22;11910;52.086;21.066;2023-08-30T16:01:35;19.90;99.90
23475;DHT22;11910;52.086;21.066;2023-08-30T16:04:01;19.90;99.90
23475;DHT22;11910;52.086;21.066;2023-08-30T16:06:27;19.90;99.90
23475;DHT22;11910;52.086;21.066;2023-08-30T16:08:52;19.80;99.90
23475;DHT22;11910;52.086;21.066;2023-08-30T16:11:25;19.80;99.90
23475;DHT22;11910;52.086;21.066;2023-08-30T16:13:58;19.80;99.90
23475;DHT22;11910;52.086;21.066;2023-08-30T16:16:24;19.70;99.90
23475;DHT22;11910;52.086;21.066;2023-08-30T16:18:49;19.60;99.90
23475;DHT22;11910;52.086;21.066;2023-08-30T16:21:15;19.60;99.90
23475;DHT22;11910;52.086;21.066;2023-08-30T16:23:40;19.60;99.90
23475;DHT22;11910;52.086;21.066;2023-08-30T16:26:08;19.50;99.90
23475;DHT22;11910;52.086;21.066;2023-08-30T16:28:36;19.50;99.90
23475;DHT22;11910;52.086;21.066;2023-08-30T16:31:06;19.40;99.90
23475;DHT22;11910;52.086;21.066;2023-08-30T16:33:32;19.40;99.90
23475;DHT22;11910;52.086;21.066;2023-08-30T16:35:59;19.50;99.90
23475;DHT22;11910;52.086;21.066;2023-08-30T16:38:25;19.40;99.90
23475;DHT22;11910;52.086;21.066;2023-08-30T16:40:51;19.30;99.90
23475;DHT22;11910;52.086;21.066;2023-08-30T16:43:17;19.30;99.90
23475;DHT22;11910;52.086;21.066;2023-08-30T16:45:42;19.30;99.90
23475;DHT22;11910;52.086;21.066;2023-08-30T16:48:08;19.20;99.90
23475;DHT22;11910;52.086;21.066;2023-08-30T16:50:36;19.20;99.90
23475;DHT22;11910;52.086;21.066;2023-08-30T16:53:03;19.20;99.90